Time;durP1;ratioP1;P1;durP2;ratioP2;P2;SDS_P1;SDS_P2;PMS_P1;PMS_P2;Temp;Humidity;BMP_temperature;BMP_pressure;BME280_temperature;BME280_humidity;BME280_pressure;Samples;Min_cycle;Max_cycle;Signal;HPM_P1;HPM_P2
2022/01/23 00:01:52;;;;;;;28.90;16.42;;;;;;;4.10;100.00;102182.28;5055741;28;20071;-78
2022/01/23 00:04:19;;;;;;;27.17;16.17;;;;;;;4.12;100.00;102186.63;5046171;28;20079;-79
2022/01/23 00:06:48;;;;;;;25.42;15.68;;;;;;;4.18;100.00;102181.34;5053007;28;20388;-76
2022/01/23 00:09:17;;;;;;;25.80;16.10;;;;;;;4.20;100.00;102182.22;5089770;28;20058;-75
2022/01/23 00:11:52;;;;;;;25.30;15.73;;;;;;;4.19;100.00;102192.69;5046973;28;20048;-75
2022/01/23 00:17:18;;;;;;;23.90;15.15;;;;;;;4.21;100.00;102199.59;5083310;28;20052;-76
2022/01/23 00:19:58;;;;;;;22.10;14.70;;;;;;;4.22;100.00;102203.94;5068080;28;20129;-75
2022/01/23 00:22:53;;;;;;;25.90;14.65;;;;;;;4.31;100.00;102192.56;5053470;28;20036;-77
2022/01/23 00:30:49;;;;;;;21.38;12.80;;;;;;;4.31;100.00;102184.75;5055808;28;21291;-75
2022/01/23 00:33:17;;;;;;;22.88;13.15;;;;;;;4.31;100.00;102187.34;5052704;28;20179;-76
2022/01/23 00:35:46;;;;;;;19.63;13.60;;;;;;;4.25;100.00;102195.22;5049634;28;20048;-76
2022/01/23 00:38:14;;;;;;;23.15;14.35;;;;;;;4.22;100.00;102196.09;5046912;28;20136;-76
2022/01/23 00:40:42;;;;;;;21.08;13.82;;;;;;;4.21;100.00;102188.31;5059809;28;20048;-78
2022/01/23 00:43:17;;;;;;;22.17;13.98;;;;;;;4.24;100.00;102191.75;5032507;28;20454;-77
2022/01/23 00:45:53;;;;;;;25.08;14.13;;;;;;;4.27;100.00;102189.09;5048722;28;20477;-75
2022/01/23 00:48:26;;;;;;;22.00;14.25;;;;;;;4.29;100.00;102184.78;5069683;28;20502;-77
2022/01/23 00:50:53;;;;;;;22.27;14.52;;;;;;;4.30;100.00;102181.28;5031529;28;20739;-76
2022/01/23 00:53:21;;;;;;;24.10;15.65;;;;;;;4.38;100.00;102190.78;5052465;28;20457;-77
2022/01/23 00:55:48;;;;;;;20.30;13.82;;;;;;;4.40;100.00;102186.41;5046473;28;20208;-75
2022/01/23 00:58:16;;;;;;;21.63;13.88;;;;;;;4.41;100.00;102181.16;5039583;28;20449;-76
2022/01/23 01:00:43;;;;;;;19.88;13.23;;;;;;;4.38;100.00;102175.16;5043109;28;20135;-76
2022/01/23 01:03:11;;;;;;;17.63;11.50;;;;;;;4.40;100.00;102170.75;5035072;28;20067;-77
2022/01/23 01:05:38;;;;;;;22.02;12.52;;;;;;;4.35;100.00;102170.81;5052454;28;20123;-79
2022/01/23 01:08:06;;;;;;;19.15;13.23;;;;;;;4.36;100.00;102164.72;5071610;28;20056;-75
2022/01/23 01:10:51;;;;;;;22.00;13.18;;;;;;;4.40;100.00;102169.03;5072241;28;20079;-77
2022/01/23 01:13:18;;;;;;;20.40;11.98;;;;;;;4.35;100.00;102168.19;5055955;28;20048;-74
2022/01/23 01:16:12;;;;;;;17.98;12.70;;;;;;;4.38;100.00;102165.56;5047990;28;20061;-76
2022/01/23 01:32:53;;;;;;;15.45;9.60;;;;;;;4.40;100.00;102176.84;5066158;28;19925;-76
2022/01/23 01:35:26;;;;;;;12.85;9.45;;;;;;;4.37;100.00;102184.72;5052557;28;20062;-76
2022/01/23 01:37:53;;;;;;;15.77;9.30;;;;;;;4.42;100.00;102192.50;5058317;28;20700;-77
2022/01/23 01:40:21;;;;;;;12.07;8.55;;;;;;;4.45;100.00;102198.53;5067201;28;20041;-75
2022/01/23 01:42:49;;;;;;;14.32;9.07;;;;;;;4.46;100.00;102202.03;5051577;28;20048;-76
2022/01/23 01:45:21;;;;;;;13.57;8.68;;;;;;;4.45;100.00;102198.53;5056379;28;20048;-75
2022/01/23 01:47:54;;;;;;;10.93;8.98;;;;;;;4.48;100.00;102203.72;5065331;28;20059;-76
2022/01/23 01:50:22;;;;;;;10.55;7.93;;;;;;;4.50;100.00;102199.38;5061492;28;20135;-77
2022/01/23 01:52:49;;;;;;;12.30;7.97;;;;;;;4.43;100.00;102189.88;5030152;28;20279;-75
2022/01/23 01:55:24;;;;;;;11.73;8.20;;;;;;;4.54;100.00;102189.75;5066936;28;20094;-75
2022/01/23 01:57:55;;;;;;;12.73;7.80;;;;;;;4.50;100.00;102177.63;5064605;28;20123;-75
2022/01/23 02:00:39;;;;;;;10.55;7.35;;;;;;;4.55;100.00;102192.38;5077831;28;20494;-77
2022/01/23 02:03:26;;;;;;;10.13;7.25;;;;;;;4.49;100.00;102187.19;5066674;28;20049;-75
2022/01/23 02:08:39;;;;;;;10.77;7.03;;;;;;;4.58;100.00;102191.47;5063157;28;20790;-75
2022/01/23 02:11:15;;;;;;;9.93;7.22;;;;;;;4.52;100.00;102187.19;5054486;28;20106;-75
2022/01/23 02:52:08;;;;;;;9.20;6.75;;;;;;;4.57;100.00;102206.25;5067139;28;20092;-75
2022/01/23 02:54:57;;;;;;;13.07;7.53;;;;;;;4.60;100.00;102194.09;5055447;28;20048;-75
2022/01/23 02:57:53;;;;;;;9.88;6.90;;;;;;;4.62;100.00;102192.31;5045506;28;20569;-76
2022/01/23 03:00:24;;;;;;;8.77;6.30;;;;;;;4.58;100.00;102188.84;5051521;28;20046;-75
2022/01/23 03:02:54;;;;;;;10.65;7.15;;;;;;;4.55;100.00;102187.16;5027844;28;20043;-74
2022/01/23 03:08:16;;;;;;;8.98;6.97;;;;;;;4.55;100.00;102188.91;5061500;28;20095;-76
2022/01/23 03:10:48;;;;;;;10.35;7.20;;;;;;;4.64;100.00;102187.94;5059568;28;20045;-74
2022/01/23 03:16:14;;;;;;;9.35;6.57;;;;;;;4.64;100.00;102198.38;5063931;28;20055;-76
2022/01/23 03:24:28;;;;;;;9.57;6.60;;;;;;;4.57;100.00;102211.47;5060966;28;20143;-76
2022/01/23 03:32:26;;;;;;;10.48;7.25;;;;;;;4.54;100.00;102214.09;5062819;28;20052;-75
2022/01/23 03:34:53;;;;;;;9.13;6.25;;;;;;;4.57;100.00;102210.59;5045625;28;20055;-75
2022/01/23 03:37:20;;;;;;;10.73;6.88;;;;;;;4.54;100.00;102211.50;5052991;28;20024;-75
2022/01/23 03:39:48;;;;;;;9.98;7.00;;;;;;;4.50;100.00;102214.13;5031078;28;20047;-77
2022/01/23 03:42:15;;;;;;;10.43;5.80;;;;;;;4.46;100.00;102208.09;5043109;28;20049;-74
2022/01/23 03:44:55;;;;;;;7.90;5.85;;;;;;;4.48;100.00;102211.56;5058342;28;20064;-75
2022/01/23 03:47:36;;;;;;;9.93;6.38;;;;;;;4.47;100.00;102204.59;5049271;28;20044;-75
2022/01/23 03:50:06;;;;;;;10.13;6.38;;;;;;;4.42;100.00;102206.41;5056983;28;20107;-75
2022/01/23 03:52:34;;;;;;;9.00;6.45;;;;;;;4.38;100.00;102215.13;5060696;28;21750;-74
2022/01/23 03:55:06;;;;;;;10.43;7.00;;;;;;;4.48;100.00;102208.09;5062165;28;20433;-73
2022/01/23 03:57:33;;;;;;;8.40;5.85;;;;;;;4.44;100.00;102216.81;5065717;28;20099;-75
2022/01/23 04:00:02;;;;;;;8.82;6.53;;;;;;;4.36;100.00;102222.06;5062361;28;20212;-75
2022/01/23 04:02:29;;;;;;;10.40;6.45;;;;;;;4.36;100.00;102218.59;5062623;28;20176;-76
2022/01/23 04:04:57;;;;;;;9.35;6.57;;;;;;;4.36;100.00;102219.47;5060270;28;20115;-74
2022/01/23 04:07:27;;;;;;;8.43;6.03;;;;;;;4.41;100.00;102217.69;5052801;28;20063;-75
2022/01/23 04:09:54;;;;;;;8.50;6.45;;;;;;;4.41;100.00;102225.50;5081931;28;20135;-76
2022/01/23 04:12:47;;;;;;;7.97;5.75;;;;;;;4.39;100.00;102231.63;5061587;28;20045;-75
2022/01/23 04:19:04;;;;;;;9.77;5.82;;;;;;;4.40;100.00;102238.56;5040050;28;20048;-76
2022/01/23 04:45:53;;;;;;;12.45;6.50;;;;;;;4.41;100.00;102235.94;5060784;28;20148;-76
2022/01/23 05:02:01;;;;;;;12.05;7.95;;;;;;;4.45;100.00;102247.22;5065545;28;20118;-75
2022/01/23 05:04:33;;;;;;;;;;;;;;;4.47;100.00;102258.50;5065730;28;20139;-76
2022/01/23 05:09:29;;;;;;;9.73;6.78;;;;;;;4.42;100.00;102255.94;5069645;28;20048;-76
2022/01/23 05:11:59;;;;;;;10.02;6.60;;;;;;;4.35;100.00;102256.84;5042076;28;20033;-75
2022/01/23 05:14:34;;;;;;;11.13;7.50;;;;;;;4.42;100.00;102253.34;5058701;28;20170;-76
2022/01/23 05:17:02;;;;;;;12.70;6.40;;;;;;;4.37;100.00;102262.94;5035231;28;20053;-75
2022/01/23 05:19:30;;;;;;;9.23;6.45;;;;;;;4.39;100.00;102262.91;5055889;28;20045;-76
2022/01/23 05:22:16;;;;;;;9.60;6.90;;;;;;;4.34;100.00;102270.75;5043104;28;20044;-75
2022/01/23 05:24:57;;;;;;;12.48;7.38;;;;;;;4.32;100.00;102277.72;5083100;28;20060;-74
2022/01/23 05:27:27;;;;;;;11.05;7.60;;;;;;;4.32;100.00;102276.00;5068400;28;20706;-74
2022/01/23 05:29:57;;;;;;;10.40;6.90;;;;;;;4.35;100.00;102275.09;5045784;28;20117;-76
2022/01/23 05:32:28;;;;;;;11.63;8.13;;;;;;;4.31;100.00;102279.47;5061874;28;20083;-75
2022/01/23 05:34:55;;;;;;;12.48;7.72;;;;;;;4.32;100.00;102289.03;5047876;28;20621;-77
2022/01/23 05:37:23;;;;;;;13.20;7.78;;;;;;;4.36;100.00;102291.59;5048877;28;20053;-76
2022/01/23 05:39:51;;;;;;;9.43;6.63;;;;;;;4.32;100.00;102296.84;5061317;28;20131;-76
2022/01/23 05:42:18;;;;;;;10.05;6.68;;;;;;;4.31;100.00;102283.81;5063637;28;20128;-75
2022/01/23 05:44:46;;;;;;;10.48;7.20;;;;;;;4.34;100.00;102280.34;5066139;28;20045;-77
2022/01/23 05:47:13;;;;;;;11.93;6.90;;;;;;;4.35;100.00;102280.31;5048777;28;20075;-75
2022/01/23 05:49:42;;;;;;;10.43;7.53;;;;;;;4.38;100.00;102288.13;5066568;28;20044;-75
2022/01/23 05:52:09;;;;;;;10.10;7.20;;;;;;;4.35;100.00;102285.53;5067433;28;20052;-75
2022/01/23 05:54:36;;;;;;;14.15;8.40;;;;;;;4.34;100.00;102291.63;5059464;28;20049;-78
2022/01/23 05:57:04;;;;;;;13.23;8.38;;;;;;;4.40;100.00;102290.72;5069198;28;20055;-76
2022/01/23 05:59:31;;;;;;;13.00;7.97;;;;;;;4.38;100.00;102293.34;5076183;28;20072;-76
2022/01/23 06:01:59;;;;;;;11.00;7.45;;;;;;;4.41;100.00;102292.44;5087043;28;20499;-78
2022/01/23 06:04:27;;;;;;;10.82;7.85;;;;;;;4.39;100.00;102296.81;5061712;28;20096;-79
2022/01/23 06:06:56;;;;;;;12.07;8.02;;;;;;;4.40;100.00;102290.72;5063327;28;20064;-76
2022/01/23 06:09:23;;;;;;;11.35;7.75;;;;;;;4.46;100.00;102301.97;5063702;28;20094;-75
2022/01/23 06:11:51;;;;;;;13.23;8.63;;;;;;;4.43;100.00;102304.59;5045850;28;20208;-77
2022/01/23 06:14:19;;;;;;;12.60;8.75;;;;;;;4.47;100.00;102319.34;5064624;28;20128;-76
2022/01/23 06:16:46;;;;;;;13.45;9.43;;;;;;;4.51;100.00;102309.78;5067101;28;20412;-76
2022/01/23 06:19:14;;;;;;;14.25;9.95;;;;;;;4.53;100.00;102308.00;5057912;28;20083;-75
2022/01/23 06:21:41;;;;;;;14.65;10.55;;;;;;;4.44;100.00;102302.84;5060165;28;20037;-77
2022/01/23 06:24:14;;;;;;;14.85;10.30;;;;;;;4.43;100.00;102307.22;5054650;28;20102;-76
2022/01/23 06:26:41;;;;;;;17.08;10.65;;;;;;;4.43;100.00;102308.94;5047921;28;20056;-75
2022/01/23 06:29:09;;;;;;;14.10;10.52;;;;;;;4.43;100.00;102322.84;5068041;28;20491;-76
2022/01/23 06:31:38;;;;;;;14.43;10.50;;;;;;;4.46;100.00;102317.63;5065296;28;20048;-75
2022/01/23 06:34:06;;;;;;;14.75;10.18;;;;;;;4.43;100.00;102328.06;5070634;28;20055;-76
2022/01/23 06:36:37;;;;;;;16.63;9.93;;;;;;;4.45;100.00;102330.66;5043061;28;20131;-76
2022/01/23 06:39:06;;;;;;;14.82;9.18;;;;;;;4.43;100.00;102328.06;5069099;28;20056;-75
2022/01/23 06:41:33;;;;;;;13.57;9.57;;;;;;;4.48;100.00;102323.69;5051731;28;20040;-77
2022/01/23 06:44:02;;;;;;;13.30;9.35;;;;;;;4.50;100.00;102318.44;5065006;28;20051;-75
2022/01/23 06:46:34;;;;;;;12.95;9.60;;;;;;;4.43;100.00;102315.03;5047650;28;20066;-75
2022/01/23 06:49:01;;;;;;;13.90;10.23;;;;;;;4.46;100.00;102309.81;5038656;28;20044;-77
2022/01/23 06:51:29;;;;;;;15.25;9.82;;;;;;;4.44;100.00;102318.50;5073613;28;20388;-76
2022/01/23 06:53:56;;;;;;;12.75;9.13;;;;;;;4.45;100.00;102320.22;5059943;28;20138;-74
2022/01/23 06:56:24;;;;;;;14.43;9.93;;;;;;;4.48;100.00;102315.00;5050914;28;20144;-74
2022/01/23 06:58:51;;;;;;;14.98;9.73;;;;;;;4.49;100.00;102314.97;5062449;28;20195;-74
2022/01/23 07:01:18;;;;;;;13.20;9.65;;;;;;;4.51;100.00;102323.69;5064149;28;20044;-77
2022/01/23 07:03:46;;;;;;;13.88;9.98;;;;;;;4.49;100.00;102328.03;5070536;28;20533;-75
2022/01/23 07:06:14;;;;;;;14.23;10.48;;;;;;;4.51;100.00;102317.59;5067036;28;20538;-75
2022/01/23 07:09:01;;;;;;;14.55;9.38;;;;;;;4.61;100.00;102327.09;5033830;28;20073;-75
2022/01/23 07:11:28;;;;;;;13.25;9.55;;;;;;;4.57;100.00;102325.38;5069114;28;20067;-76
2022/01/23 07:13:55;;;;;;;13.35;8.88;;;;;;;4.55;100.00;102329.75;5046055;28;20064;-74
2022/01/23 07:16:23;;;;;;;13.70;9.43;;;;;;;4.54;100.00;102339.28;5040309;28;20186;-74
2022/01/23 07:18:51;;;;;;;13.50;9.77;;;;;;;4.60;100.00;102329.72;5043243;28;20045;-77
2022/01/23 07:21:19;;;;;;;12.30;9.05;;;;;;;4.60;100.00;102346.22;5046793;28;20067;-76
2022/01/23 07:23:50;;;;;;;15.48;9.88;;;;;;;4.52;100.00;102343.66;5067634;28;20054;-75
2022/01/23 07:26:21;;;;;;;14.88;9.40;;;;;;;4.54;100.00;102348.84;5047661;28;20040;-75
2022/01/23 07:28:51;;;;;;;12.90;9.48;;;;;;;4.58;100.00;102359.25;5031775;28;20045;-76
2022/01/23 07:31:43;;;;;;;13.10;9.60;;;;;;;4.60;100.00;102364.50;5044820;28;20676;-75
2022/01/23 07:34:11;;;;;;;12.88;9.00;;;;;;;4.57;100.00;102373.19;5047166;28;20040;-75
2022/01/23 07:36:39;;;;;;;13.45;9.73;;;;;;;4.59;100.00;102378.38;5050500;28;20071;-77
2022/01/23 07:39:06;;;;;;;14.68;8.50;;;;;;;4.59;100.00;102370.56;5045623;28;20049;-75
2022/01/23 07:41:33;;;;;;;11.85;8.32;;;;;;;4.63;100.00;102371.41;5061558;28;20045;-76
2022/01/23 07:44:01;;;;;;;11.55;8.85;;;;;;;4.65;100.00;102374.88;5067353;28;20050;-76
2022/01/23 07:46:28;;;;;;;13.50;9.27;;;;;;;4.64;100.00;102379.25;5043410;28;20047;-75
2022/01/23 07:48:56;;;;;;;11.52;8.27;;;;;;;4.65;100.00;102380.97;5062672;28;20037;-75
2022/01/23 07:51:23;;;;;;;14.75;8.60;;;;;;;4.67;100.00;102384.41;5052659;28;20698;-76
2022/01/23 07:53:50;;;;;;;14.63;8.82;;;;;;;4.66;100.00;102376.63;5059128;28;20086;-74
2022/01/23 07:56:19;;;;;;;13.73;9.40;;;;;;;4.64;100.00;102376.63;5044319;28;20044;-75
2022/01/23 07:58:46;;;;;;;11.75;8.65;;;;;;;4.68;100.00;102380.94;5031102;28;20143;-75
2022/01/23 08:01:13;;;;;;;12.70;9.50;;;;;;;4.79;100.00;102380.88;5033852;28;20040;-75
2022/01/23 08:03:41;;;;;;;12.38;8.82;;;;;;;4.79;100.00;102381.75;5040429;28;20096;-76
2022/01/23 08:06:11;;;;;;;12.90;8.75;;;;;;;4.75;100.00;102385.25;5047069;28;20127;-75
2022/01/23 08:08:39;;;;;;;12.43;9.25;;;;;;;4.82;100.00;102394.78;5080683;28;20121;-77
2022/01/23 08:11:08;;;;;;;11.35;8.73;;;;;;;4.90;100.00;102388.63;5027528;28;20167;-75
2022/01/23 08:13:35;;;;;;;13.90;8.55;;;;;;;4.93;100.00;102386.00;5045836;28;20028;-76
2022/01/23 08:16:03;;;;;;;12.30;8.80;;;;;;;4.99;100.00;102392.03;5059926;28;20067;-76
2022/01/23 08:18:31;;;;;;;13.50;8.25;;;;;;;5.07;100.00;102386.75;5048729;28;20559;-76
2022/01/23 08:20:58;;;;;;;10.85;7.40;;;;;;;5.18;100.00;102395.38;5045549;28;20285;-76
2022/01/23 08:23:27;;;;;;;11.13;8.10;;;;;;;5.15;100.00;102387.56;5046551;28;20055;-79
2022/01/23 08:25:56;;;;;;;10.90;7.53;;;;;;;5.28;100.00;102391.81;5045679;28;20048;-77
2022/01/23 08:28:23;;;;;;;9.32;6.70;;;;;;;5.37;100.00;102400.44;5051622;28;20072;-80
2022/01/23 08:30:51;;;;;;;9.68;7.65;;;;;;;5.33;100.00;102392.63;5059254;28;20114;-76
2022/01/23 08:33:19;;;;;;;10.43;7.05;;;;;;;5.37;100.00;102405.66;5049586;28;20072;-77
2022/01/23 08:35:47;;;;;;;9.02;6.78;;;;;;;5.39;100.00;102404.75;5047722;28;20106;-76
2022/01/23 08:38:16;;;;;;;10.10;6.78;;;;;;;5.37;100.00;102411.75;5056358;28;20134;-75
2022/01/23 08:43:13;;;;;;;9.98;7.63;;;;;;;5.43;100.00;102409.06;5052586;28;20041;-75
2022/01/23 08:45:52;;;;;;;8.55;6.13;;;;;;;5.31;100.00;102410.06;5049580;28;20033;-76
2022/01/23 08:48:20;;;;;;;10.38;6.95;;;;;;;5.33;100.00;102410.03;5041569;28;20110;-78
2022/01/23 08:50:47;;;;;;;9.60;6.97;;;;;;;5.30;100.00;102413.53;5065245;28;20056;-78
2022/01/23 08:53:15;;;;;;;9.45;7.10;;;;;;;5.23;100.00;102409.25;5049050;28;20137;-75
2022/01/23 08:55:42;;;;;;;10.52;6.88;;;;;;;5.24;100.00;102407.50;5042806;28;21454;-76
2022/01/23 08:58:09;;;;;;;8.95;6.57;;;;;;;5.32;100.00;102414.41;5033175;28;20655;-76
2022/01/23 09:00:36;;;;;;;8.32;6.55;;;;;;;5.38;100.00;102417.84;5046703;28;20044;-77
2022/01/23 09:03:04;;;;;;;9.18;6.30;;;;;;;5.42;100.00;102424.78;5034481;28;20625;-77
2022/01/23 09:05:31;;;;;;;8.18;6.28;;;;;;;5.49;100.00;102426.44;5049400;28;20055;-75
2022/01/23 09:07:58;;;;;;;8.52;6.57;;;;;;;5.48;100.00;102425.56;5033051;28;20135;-76
2022/01/23 09:10:28;;;;;;;9.32;6.20;;;;;;;5.53;100.00;102417.69;5067558;28;20125;-76
2022/01/23 09:15:24;;;;;;;8.02;5.53;;;;;;;5.73;100.00;102428.81;5051227;28;20044;-76
2022/01/23 09:17:52;;;;;;;9.68;6.10;;;;;;;5.74;100.00;102424.47;5048202;28;20148;-78
2022/01/23 09:20:19;;;;;;;11.48;6.40;;;;;;;5.68;100.00;102433.25;5068237;28;20108;-77
2022/01/23 09:22:46;;;;;;;7.40;5.18;;;;;;;5.69;100.00;102434.09;5045639;28;20046;-77
2022/01/23 09:25:16;;;;;;;10.43;6.43;;;;;;;5.77;100.00;102434.91;5043255;28;20095;-78
2022/01/23 09:27:43;;;;;;;8.40;6.05;;;;;;;5.97;100.00;102427.72;5045326;28;20128;-77
2022/01/23 09:30:20;;;;;;;7.50;5.18;;;;;;;6.18;100.00;102431.84;5063619;28;20574;-78
2022/01/23 09:32:49;;;;;;;7.28;5.53;;;;;;;6.37;100.00;102432.50;5051068;28;20043;-77
2022/01/23 09:35:17;;;;;;;7.30;5.32;;;;;;;6.50;100.00;102431.47;5044688;28;20048;-78
2022/01/23 09:37:45;;;;;;;9.05;6.13;;;;;;;6.41;100.00;102439.44;5042578;28;20057;-77
2022/01/23 09:40:14;;;;;;;6.60;5.00;;;;;;;6.27;100.00;102434.38;5047944;28;20040;-79
2022/01/23 09:42:47;;;;;;;8.15;5.80;;;;;;;6.13;100.00;102432.81;5049114;28;20045;-76
2022/01/23 09:45:15;;;;;;;6.95;5.00;;;;;;;6.03;100.00;102429.41;5065002;28;20705;-76
2022/01/23 09:47:42;;;;;;;7.10;5.38;;;;;;;5.96;100.00;102439.06;5042205;28;20586;-78
2022/01/23 09:50:11;;;;;;;9.40;5.25;;;;;;;5.98;100.00;102441.66;5050154;28;20466;-83
2022/01/23 09:52:40;;;;;;;8.07;5.38;;;;;;;6.07;100.00;102439.81;5062520;28;20075;-79
2022/01/23 09:55:11;;;;;;;8.07;5.80;;;;;;;6.20;100.00;102445.78;5079795;28;20116;-78
2022/01/23 09:57:44;;;;;;;6.57;5.32;;;;;;;6.34;100.00;102448.22;5072080;28;20104;-76
2022/01/23 10:00:18;;;;;;;7.68;5.35;;;;;;;6.58;100.00;102439.22;5047207;28;20052;-78
2022/01/23 10:02:46;;;;;;;8.65;5.43;;;;;;;6.72;100.00;102444.25;5045383;28;20045;-77
2022/01/23 10:05:14;;;;;;;9.30;5.15;;;;;;;6.69;100.00;102441.69;5067222;28;20086;-78
2022/01/23 10:07:42;;;;;;;8.32;6.13;;;;;;;6.53;100.00;102439.28;5049627;28;20045;-79
2022/01/23 10:10:17;;;;;;;6.47;5.13;;;;;;;6.44;100.00;102447.25;5046985;28;20054;-77
2022/01/23 10:12:55;;;;;;;8.73;5.13;;;;;;;6.51;100.00;102448.88;5058919;28;20049;-76
2022/01/23 10:15:27;;;;;;;7.97;5.40;;;;;;;6.44;100.00;102455.09;5031071;28;20069;-78
2022/01/23 10:17:55;;;;;;;7.22;5.30;;;;;;;6.42;100.00;102453.38;5047924;28;20064;-77
2022/01/23 10:20:22;;;;;;;8.52;5.55;;;;;;;6.53;100.00;102452.34;5064799;28;20045;-78
2022/01/23 10:22:51;;;;;;;8.02;4.97;;;;;;;6.57;100.00;102454.06;5066221;28;20045;-81
2022/01/23 10:25:21;;;;;;;7.40;4.90;;;;;;;6.51;100.00;102448.03;5049733;28;20045;-78
2022/01/23 10:28:05;;;;;;;5.70;4.50;;;;;;;6.67;100.00;102441.72;5037497;28;20632;-78
2022/01/23 10:30:34;;;;;;;5.28;4.38;;;;;;;6.75;100.00;102433.72;5068994;28;20327;-80
2022/01/23 10:33:07;;;;;;;6.65;4.45;;;;;;;6.72;100.00;102437.28;5051353;28;20040;-83
2022/01/23 10:35:53;;;;;;;7.43;5.05;;;;;;;6.58;100.00;102426.13;5065432;28;20052;-81
2022/01/23 10:38:25;;;;;;;7.90;5.65;;;;;;;6.48;100.00;102427.13;5065863;28;20060;-78
2022/01/23 10:41:06;;;;;;;6.18;5.03;;;;;;;6.44;100.00;102428.03;5059800;28;20272;-79
2022/01/23 10:46:41;;;;;;;6.80;4.72;;;;;;;6.53;100.00;102423.56;5060873;28;20135;-79
2022/01/23 10:49:08;;;;;;;9.23;5.00;;;;;;;6.76;100.00;102427.63;5045731;28;20086;-76
2022/01/23 10:51:36;;;;;;;7.80;4.80;;;;;;;6.89;100.00;102436.16;5028834;28;20047;-77
2022/01/23 10:54:05;;;;;;;10.48;5.35;;;;;;;6.82;100.00;102432.78;5060841;28;20131;-79
2022/01/23 10:56:38;;;;;;;13.70;5.00;;;;;;;6.95;100.00;102431.69;5041075;28;20650;-76
2022/01/23 10:59:10;;;;;;;6.90;5.40;;;;;;;7.01;100.00;102433.34;5071252;28;20131;-78
2022/01/23 11:01:39;;;;;;;7.53;5.28;;;;;;;6.97;100.00;102434.28;5037501;28;20071;-81
2022/01/23 11:04:10;;;;;;;8.88;5.25;;;;;;;6.91;100.00;102442.25;5035674;28;20138;-77
2022/01/23 11:06:59;;;;;;;9.00;5.07;;;;;;;6.76;100.00;102438.09;5041797;28;20113;-76
2022/01/23 11:09:32;;;;;;;7.60;5.65;;;;;;;6.68;100.00;102439.94;5041148;28;20049;-77
2022/01/23 11:12:13;;;;;;;5.88;4.50;;;;;;;6.52;100.00;102445.38;5028902;28;20048;-75
2022/01/23 11:17:22;;;;;;;8.82;4.88;;;;;;;6.32;100.00;102444.78;5042533;28;20479;-76
2022/01/23 11:17:55;;;;;;;8.00;4.60;;;;;;;6.48;100.00;102442.81;5045985;28;20082;-80
2022/01/23 11:20:33;;;;;;;6.97;4.38;;;;;;;6.76;100.00;102433.72;5035831;28;20056;-80
2022/01/23 11:23:15;;;;;;;7.55;4.47;;;;;;;6.96;100.00;102437.81;5053752;28;20674;-78
2022/01/23 11:25:56;;;;;;;9.70;4.65;;;;;;;7.38;100.00;102433.63;5056973;28;20151;-79
2022/01/23 11:28:33;;;;;;;6.72;4.03;;;;;;;7.20;100.00;102436.53;5038422;28;20135;-78
2022/01/23 11:31:01;;;;;;;8.48;4.65;;;;;;;7.24;100.00;102438.22;5054271;28;20062;-79
2022/01/23 11:33:29;;;;;;;6.82;4.53;;;;;;;7.41;100.00;102441.44;5041260;28;20140;-77
2022/01/23 11:35:57;;;;;;;6.43;4.07;;;;;;;7.60;100.00;102447.22;5057974;28;20051;-78
2022/01/23 11:38:25;;;;;;;5.15;3.53;;;;;;;7.51;100.00;102443.00;5042699;28;20055;-77
2022/01/23 11:54:47;;;;;;;5.13;3.47;;;;;;;7.21;100.00;102435.69;5055584;28;20044;-78
2022/01/23 11:57:36;;;;;;;5.53;3.45;;;;;;;7.07;100.00;102435.91;5042348;28;20040;-77
2022/01/23 12:00:18;;;;;;;7.93;4.30;;;;;;;7.07;100.00;102441.13;5064711;28;20121;-78
2022/01/23 12:03:14;;;;;;;7.50;4.82;;;;;;;7.37;100.00;102437.13;5068301;28;20053;-78
2022/01/23 12:05:46;;;;;;;7.28;3.78;;;;;;;7.54;100.00;102448.22;5039470;28;20519;-77
2022/01/23 12:08:20;;;;;;;6.10;3.67;;;;;;;7.45;100.00;102448.38;5040910;28;20041;-77
2022/01/23 12:17:06;;;;;;;6.20;3.92;;;;;;;7.18;100.00;102439.19;5053359;28;20131;-82
2022/01/23 12:19:47;;;;;;;9.23;4.18;;;;;;;6.95;100.00;102444.78;5022994;28;20037;-77
2022/01/23 12:22:53;;;;;;;6.15;3.05;;;;;;;6.93;100.00;102443.06;5037854;28;20102;-79
2022/01/23 12:25:27;;;;;;;6.00;4.17;;;;;;;7.09;100.00;102445.44;5005370;28;20133;-78
2022/01/23 12:28:12;;;;;;;5.57;3.53;;;;;;;7.19;100.00;102442.69;5032606;28;20135;-76
2022/01/23 12:30:42;;;;;;;5.53;2.63;;;;;;;7.29;100.00;102433.78;5036176;28;20064;-77
2022/01/23 12:33:17;;;;;;;5.82;3.47;;;;;;;7.25;100.00;102434.72;5054848;28;20056;-78
2022/01/23 12:35:47;;;;;;;6.50;3.80;;;;;;;7.16;100.00;102434.84;5022462;28;20044;-75
2022/01/23 12:38:15;;;;;;;5.00;3.58;;;;;;;7.04;100.00;102430.69;5042835;28;20132;-79
2022/01/23 12:40:47;;;;;;;5.30;3.55;;;;;;;7.22;100.00;102430.41;5036722;28;20045;-77
2022/01/23 12:43:21;;;;;;;6.72;2.92;;;;;;;7.19;100.00;102426.97;5046212;28;20043;-77
2022/01/23 12:46:04;;;;;;;3.75;2.63;;;;;;;7.20;100.00;102428.69;5038637;28;20053;-77
2022/01/23 12:48:36;;;;;;;4.20;2.55;;;;;;;7.06;100.00;102431.53;5041054;28;20098;-78
2022/01/23 12:51:32;;;;;;;4.00;2.58;;;;;;;6.94;100.00;102429.13;5054712;28;20144;-79
2022/01/23 12:53:59;;;;;;;5.95;2.70;;;;;;;6.87;100.00;102427.47;5049846;28;20057;-77
2022/01/23 12:56:32;;;;;;;3.33;2.22;;;;;;;6.83;100.00;102432.72;5040943;28;20055;-77
2022/01/23 12:59:19;;;;;;;4.07;2.50;;;;;;;6.75;100.00;102439.81;5021021;28;20170;-79
2022/01/23 13:01:48;;;;;;;5.78;2.60;;;;;;;6.71;100.00;102427.69;5041990;28;20073;-77
2022/01/23 13:04:16;;;;;;;3.38;2.35;;;;;;;6.67;100.00;102430.38;5037738;28;20045;-75
2022/01/23 13:06:51;;;;;;;4.68;2.65;;;;;;;6.65;100.00;102433.00;5056121;28;20419;-78
2022/01/23 13:09:29;;;;;;;3.42;2.70;;;;;;;6.64;100.00;102426.03;5044023;28;20036;-77
2022/01/23 13:29:52;;;;;;;5.88;2.92;;;;;;;6.74;100.00;102429.38;5058321;28;20495;-77
2022/01/23 13:31:57;;;;;;;7.20;3.58;;;;;;;6.72;100.00;102428.56;5049160;28;20044;-76
2022/01/23 13:34:47;;;;;;;6.15;3.50;;;;;;;6.77;100.00;102443.31;5026651;28;20056;-75
2022/01/23 13:37:17;;;;;;;5.13;2.60;;;;;;;6.84;100.00;102444.06;5045662;28;20044;-75
2022/01/23 13:40:03;;;;;;;5.97;3.30;;;;;;;6.76;100.00;102446.81;5070814;28;20063;-77
2022/01/23 13:50:24;;;;;;;4.40;3.00;;;;;;;6.81;100.00;102434.53;5053165;28;20075;-76
2022/01/23 13:58:35;;;;;;;4.82;2.67;;;;;;;6.95;100.00;102438.69;5049924;28;20048;-78
2022/01/23 14:01:17;;;;;;;4.57;2.55;;;;;;;6.88;100.00;102435.28;5057202;28;20079;-78
2022/01/23 14:03:45;;;;;;;3.08;2.20;;;;;;;6.78;100.00;102442.41;5056326;28;20059;-76
2022/01/23 14:06:13;;;;;;;2.97;2.25;;;;;;;6.77;100.00;102442.44;5023977;28;20059;-76
2022/01/23 14:08:40;;;;;;;5.40;2.53;;;;;;;6.88;100.00;102443.13;5040503;28;20131;-76
2022/01/23 14:11:09;;;;;;;4.35;2.80;;;;;;;6.88;100.00;102447.50;5042092;28;21659;-77
2022/01/23 14:13:37;;;;;;;7.07;2.47;;;;;;;6.90;100.00;102449.25;5041665;28;20072;-77
2022/01/23 14:16:05;;;;;;;3.42;2.17;;;;;;;6.85;100.00;102453.69;5056926;28;20067;-78
2022/01/23 14:18:32;;;;;;;3.25;2.00;;;;;;;6.80;100.00;102448.50;5072112;28;20142;-77
2022/01/23 14:21:09;;;;;;;3.50;2.15;;;;;;;6.85;100.00;102459.78;5040520;28;20049;-79
2022/01/23 14:23:36;;;;;;;5.00;2.38;;;;;;;6.84;100.00;102450.19;5057016;28;20045;-76
2022/01/23 14:26:07;;;;;;;2.67;1.60;;;;;;;6.79;100.00;102452.00;5021072;28;20036;-78
2022/01/23 14:28:39;;;;;;;5.25;1.98;;;;;;;6.80;100.00;102455.50;5037160;28;20402;-76
2022/01/23 14:31:16;;;;;;;2.67;1.70;;;;;;;6.77;100.00;102453.78;5026554;28;20511;-77
2022/01/23 14:33:44;;;;;;;4.85;1.85;;;;;;;6.76;100.00;102456.44;5055285;28;20049;-77
2022/01/23 14:36:31;;;;;;;2.97;1.85;;;;;;;6.76;100.00;102462.53;5029332;28;20139;-76
2022/01/23 14:39:15;;;;;;;3.47;2.13;;;;;;;6.81;100.00;102457.22;5041805;28;20044;-76
2022/01/23 14:41:44;;;;;;;3.15;2.00;;;;;;;6.75;100.00;102449.44;5056967;28;20446;-78
2022/01/23 14:44:21;;;;;;;3.67;2.30;;;;;;;6.72;100.00;102455.59;5054413;28;20047;-79